sensor_id;sensor_type;location;lat;lon;timestamp;pressure;altitude;pressure_sealevel;temperature;humidity
65997;BME280;52765;52.258;21.052;2023-03-04T00:02:03;100316.16;;;0.15;100.00
65997;BME280;52765;52.258;21.052;2023-03-04T00:04:29;100317.22;;;0.12;100.00
65997;BME280;52765;52.258;21.052;2023-03-04T00:06:55;100316.72;;;0.06;100.00
65997;BME280;52765;52.258;21.052;2023-03-04T00:09:20;100307.78;;;-0.08;100.00
65997;BME280;52765;52.258;21.052;2023-03-04T00:11:46;100314.50;;;-0.02;100.00
65997;BME280;52765;52.258;21.052;2023-03-04T00:14:12;100311.94;;;-0.04;100.00
65997;BME280;52765;52.258;21.052;2023-03-04T00:16:37;100306.78;;;0.09;100.00
65997;BME280;52765;52.258;21.052;2023-03-04T00:19:03;100301.22;;;0.14;100.00
65997;BME280;52765;52.258;21.052;2023-03-04T00:21:29;100304.38;;;0.21;100.00
65997;BME280;52765;52.258;21.052;2023-03-04T00:23:55;100290.38;;;0.18;100.00
65997;BME280;52765;52.258;21.052;2023-03-04T00:26:21;100295.28;;;0.25;100.00
65997;BME280;52765;52.258;21.052;2023-03-04T00:28:46;100306.44;;;0.30;100.00
65997;BME280;52765;52.258;21.052;2023-03-04T00:31:12;100294.44;;;0.24;100.00
65997;BME280;52765;52.258;21.052;2023-03-04T00:33:38;100282.31;;;0.20;100.00
65997;BME280;52765;52.258;21.052;2023-03-04T00:36:07;100281.44;;;0.20;100.00
65997;BME280;52765;52.258;21.052;2023-03-04T00:38:33;100272.47;;;0.22;100.00
65997;BME280;52765;52.258;21.052;2023-03-04T00:40:58;100271.59;;;0.22;100.00
65997;BME280;52765;52.258;21.052;2023-03-04T00:43:24;100274.56;;;0.17;100.00
65997;BME280;52765;52.258;21.052;2023-03-04T00:45:50;100274.56;;;0.17;100.00
65997;BME280;52765;52.258;21.052;2023-03-04T00:48:15;100261.97;;;0.21;100.00
65997;BME280;52765;52.258;21.052;2023-03-04T00:50:42;100268.78;;;0.25;100.00
65997;BME280;52765;52.258;21.052;2023-03-04T00:53:08;100255.16;;;0.31;100.00
65997;BME280;52765;52.258;21.052;2023-03-04T00:55:34;100259.44;;;0.33;100.00
65997;BME280;52765;52.258;21.052;2023-03-04T00:58:00;100248.06;;;0.31;100.00
65997;BME280;52765;52.258;21.052;2023-03-04T01:00:26;100240.03;;;0.33;100.00
65997;BME280;52765;52.258;21.052;2023-03-04T01:02:51;100232.47;;;0.27;100.00
65997;BME280;52765;52.258;21.052;2023-03-04T01:05:17;100232.25;;;0.30;100.00
65997;BME280;52765;52.258;21.052;2023-03-04T01:07:43;100224.13;;;0.33;100.00
65997;BME280;52765;52.258;21.052;2023-03-04T01:10:13;100213.91;;;0.27;100.00
65997;BME280;52765;52.258;21.052;2023-03-04T01:12:39;100213.91;;;0.27;100.00
65997;BME280;52765;52.258;21.052;2023-03-04T01:15:06;100211.44;;;0.24;100.00
65997;BME280;52765;52.258;21.052;2023-03-04T01:17:32;100201.59;;;0.26;100.00
65997;BME280;52765;52.258;21.052;2023-03-04T01:19:58;100214.41;;;0.33;100.00
65997;BME280;52765;52.258;21.052;2023-03-04T01:22:23;100210.88;;;0.18;100.00
65997;BME280;52765;52.258;21.052;2023-03-04T01:24:49;100200.84;;;0.09;100.00
65997;BME280;52765;52.258;21.052;2023-03-04T01:27:15;100171.13;;;0.04;100.00
65997;BME280;52765;52.258;21.052;2023-03-04T01:29:40;100161.28;;;0.06;100.00
65997;BME280;52765;52.258;21.052;2023-03-04T01:32:06;100164.97;;;-0.11;100.00
65997;BME280;52765;52.258;21.052;2023-03-04T01:34:31;100150.31;;;-0.02;100.00
65997;BME280;52765;52.258;21.052;2023-03-04T01:36:57;100137.44;;;0.06;100.00
65997;BME280;52765;52.258;21.052;2023-03-04T01:39:23;100128.75;;;0.04;100.00
65997;BME280;52765;52.258;21.052;2023-03-04T01:41:48;100119.78;;;0.07;100.00
65997;BME280;52765;52.258;21.052;2023-03-04T01:44:14;100117.59;;;0.13;100.00
65997;BME280;52765;52.258;21.052;2023-03-04T01:46:43;100125.66;;;0.12;100.00
65997;BME280;52765;52.258;21.052;2023-03-04T01:49:12;100105.38;;;0.11;100.00
65997;BME280;52765;52.258;21.052;2023-03-04T01:51:38;100129.13;;;0.12;100.00
65997;BME280;52765;52.258;21.052;2023-03-04T01:54:05;100115.03;;;-0.03;100.00
65997;BME280;52765;52.258;21.052;2023-03-04T01:56:36;100105.38;;;-0.04;100.00
65997;BME280;52765;52.258;21.052;2023-03-04T01:59:15;100093.75;;;-0.01;100.00
65997;BME280;52765;52.258;21.052;2023-03-04T02:01:47;100075.03;;;-0.12;100.00
65997;BME280;52765;52.258;21.052;2023-03-04T02:04:15;100086.47;;;-0.12;100.00
65997;BME280;52765;52.258;21.052;2023-03-04T02:06:41;100083.53;;;-0.07;100.00
65997;BME280;52765;52.258;21.052;2023-03-04T02:09:07;100067.09;;;0.02;100.00
65997;BME280;52765;52.258;21.052;2023-03-04T02:11:34;100103.19;;;0.03;100.00
65997;BME280;52765;52.258;21.052;2023-03-04T02:14:00;100078.25;;;0.07;100.00
65997;BME280;52765;52.258;21.052;2023-03-04T02:16:26;100066.59;;;0.10;100.00
65997;BME280;52765;52.258;21.052;2023-03-04T02:18:52;100075.88;;;0.17;100.00
65997;BME280;52765;52.258;21.052;2023-03-04T02:21:23;100080.09;;;0.20;100.00
65997;BME280;52765;52.258;21.052;2023-03-04T02:26:52;100081.44;;;0.27;100.00
65997;BME280;52765;52.258;21.052;2023-03-04T02:29:18;100073.69;;;0.24;100.00
65997;BME280;52765;52.258;21.052;2023-03-04T02:31:46;100091.25;;;0.25;100.00
65997;BME280;52765;52.258;21.052;2023-03-04T02:34:19;100089.78;;;0.21;100.00
65997;BME280;52765;52.258;21.052;2023-03-04T02:36:46;100079.91;;;0.23;100.00
65997;BME280;52765;52.258;21.052;2023-03-04T02:42:19;100076.34;;;0.24;100.00
65997;BME280;52765;52.258;21.052;2023-03-04T02:44:45;100090.31;;;0.26;100.00
65997;BME280;52765;52.258;21.052;2023-03-04T02:47:14;100085.03;;;0.26;100.00
65997;BME280;52765;52.258;21.052;2023-03-04T02:49:42;100076.88;;;0.29;100.00
65997;BME280;52765;52.258;21.052;2023-03-04T02:52:09;100075.34;;;0.39;100.00
65997;BME280;52765;52.258;21.052;2023-03-04T02:54:37;100063.03;;;0.38;100.00
65997;BME280;52765;52.258;21.052;2023-03-04T02:57:06;100059.63;;;0.36;100.00
65997;BME280;52765;52.258;21.052;2023-03-04T02:59:32;100070.34;;;0.34;100.00
65997;BME280;52765;52.258;21.052;2023-03-04T03:01:58;100061.53;;;0.34;100.00
65997;BME280;52765;52.258;21.052;2023-03-04T03:04:24;100060.28;;;0.40;100.00
65997;BME280;52765;52.258;21.052;2023-03-04T03:06:53;100055.53;;;0.45;100.00
65997;BME280;52765;52.258;21.052;2023-03-04T03:09:19;100058.09;;;0.46;100.00
65997;BME280;52765;52.258;21.052;2023-03-04T03:11:45;100057.06;;;0.49;100.00
65997;BME280;52765;52.258;21.052;2023-03-04T03:14:10;100051.75;;;0.49;100.00
65997;BME280;52765;52.258;21.052;2023-03-04T03:16:36;100049.56;;;0.55;100.00
65997;BME280;52765;52.258;21.052;2023-03-04T03:19:02;100044.16;;;0.57;100.00
65997;BME280;52765;52.258;21.052;2023-03-04T03:21:28;100048.28;;;0.61;100.00
65997;BME280;52765;52.258;21.052;2023-03-04T03:23:53;100049.69;;;0.67;100.00
65997;BME280;52765;52.258;21.052;2023-03-04T03:26:19;100047.78;;;0.69;100.00
65997;BME280;52765;52.258;21.052;2023-03-04T03:28:45;100036.34;;;0.68;100.00
65997;BME280;52765;52.258;21.052;2023-03-04T03:31:10;100048.53;;;0.71;100.00
65997;BME280;52765;52.258;21.052;2023-03-04T03:33:36;100043.34;;;0.69;100.00
65997;BME280;52765;52.258;21.052;2023-03-04T03:36:02;100042.09;;;0.75;100.00
65997;BME280;52765;52.258;21.052;2023-03-04T03:38:27;100033.69;;;0.68;100.00
65997;BME280;52765;52.258;21.052;2023-03-04T03:40:53;100022.47;;;0.78;100.00
65997;BME280;52765;52.258;21.052;2023-03-04T03:43:18;100029.03;;;0.72;100.00
65997;BME280;52765;52.258;21.052;2023-03-04T03:45:44;100026.72;;;0.80;100.00
65997;BME280;52765;52.258;21.052;2023-03-04T03:48:12;100021.63;;;0.77;100.00
65997;BME280;52765;52.258;21.052;2023-03-04T03:50:41;100030.75;;;0.86;100.00
65997;BME280;52765;52.258;21.052;2023-03-04T03:53:10;100013.72;;;0.90;100.00
65997;BME280;52765;52.258;21.052;2023-03-04T03:55:35;100024.31;;;0.90;100.00
65997;BME280;52765;52.258;21.052;2023-03-04T03:58:01;100018.13;;;0.89;100.00
65997;BME280;52765;52.258;21.052;2023-03-04T04:00:26;100019.53;;;0.95;100.00
65997;BME280;52765;52.258;21.052;2023-03-04T04:02:53;100010.63;;;0.96;100.00
65997;BME280;52765;52.258;21.052;2023-03-04T04:05:20;100006.50;;;0.92;100.00
65997;BME280;52765;52.258;21.052;2023-03-04T04:07:45;99992.03;;;0.70;100.00
65997;BME280;52765;52.258;21.052;2023-03-04T04:10:11;100020.44;;;0.81;100.00
65997;BME280;52765;52.258;21.052;2023-03-04T04:12:37;100006.25;;;0.82;100.00
65997;BME280;52765;52.258;21.052;2023-03-04T04:15:03;100000.44;;;0.90;100.00
65997;BME280;52765;52.258;21.052;2023-03-04T04:17:28;99997.34;;;0.96;100.00
65997;BME280;52765;52.258;21.052;2023-03-04T04:19:54;100007.66;;;1.01;100.00
65997;BME280;52765;52.258;21.052;2023-03-04T04:22:20;100000.75;;;0.98;100.00
65997;BME280;52765;52.258;21.052;2023-03-04T04:24:46;100001.50;;;1.00;100.00
65997;BME280;52765;52.258;21.052;2023-03-04T04:27:12;100002.25;;;1.02;100.00
65997;BME280;52765;52.258;21.052;2023-03-04T04:29:38;99995.56;;;0.97;100.00
65997;BME280;52765;52.258;21.052;2023-03-04T04:32:12;99994.28;;;0.89;100.00
65997;BME280;52765;52.258;21.052;2023-03-04T04:34:38;99992.59;;;0.88;100.00
65997;BME280;52765;52.258;21.052;2023-03-04T04:37:03;99997.34;;;0.96;100.00
65997;BME280;52765;52.258;21.052;2023-03-04T04:39:29;99990.47;;;1.06;100.00
65997;BME280;52765;52.258;21.052;2023-03-04T04:41:55;99995.38;;;1.13;100.00
65997;BME280;52765;52.258;21.052;2023-03-04T04:44:20;99990.06;;;1.13;100.00
65997;BME280;52765;52.258;21.052;2023-03-04T04:46:46;99992.09;;;1.22;100.00
65997;BME280;52765;52.258;21.052;2023-03-04T04:49:11;99990.38;;;1.08;100.00
65997;BME280;52765;52.258;21.052;2023-03-04T04:51:37;99991.00;;;1.11;100.00
65997;BME280;52765;52.258;21.052;2023-03-04T04:54:04;99983.59;;;1.17;100.00
65997;BME280;52765;52.258;21.052;2023-03-04T04:56:29;99983.78;;;1.26;100.00
65997;BME280;52765;52.258;21.052;2023-03-04T04:58:59;99978.81;;;1.22;100.00
65997;BME280;52765;52.258;21.052;2023-03-04T05:01:25;99963.63;;;1.24;100.00
65997;BME280;52765;52.258;21.052;2023-03-04T05:03:51;99971.06;;;1.32;100.00
65997;BME280;52765;52.258;21.052;2023-03-04T05:06:20;99975.19;;;1.36;100.00
65997;BME280;52765;52.258;21.052;2023-03-04T05:08:48;99972.03;;;1.31;100.00
65997;BME280;52765;52.258;21.052;2023-03-04T05:11:14;99961.63;;;1.27;100.00
65997;BME280;52765;52.258;21.052;2023-03-04T05:13:40;99965.53;;;1.35;100.00
65997;BME280;52765;52.258;21.052;2023-03-04T05:16:06;99969.16;;;1.34;100.00
65997;BME280;52765;52.258;21.052;2023-03-04T05:18:32;99950.91;;;1.29;100.00
65997;BME280;52765;52.258;21.052;2023-03-04T05:20:59;99957.81;;;1.32;100.00
65997;BME280;52765;52.258;21.052;2023-03-04T05:23:27;99965.00;;;1.29;100.00
65997;BME280;52765;52.258;21.052;2023-03-04T05:25:53;99961.31;;;1.32;100.00
65997;BME280;52765;52.258;21.052;2023-03-04T05:28:19;99952.25;;;1.35;100.00
65997;BME280;52765;52.258;21.052;2023-03-04T05:30:45;99948.97;;;1.31;100.00
65997;BME280;52765;52.258;21.052;2023-03-04T05:33:12;99950.78;;;1.31;100.00
65997;BME280;52765;52.258;21.052;2023-03-04T05:35:41;99951.84;;;1.28;100.00
65997;BME280;52765;52.258;21.052;2023-03-04T05:38:09;99958.97;;;1.27;100.00
65997;BME280;52765;52.258;21.052;2023-03-04T05:40:35;99957.16;;;1.28;100.00
65997;BME280;52765;52.258;21.052;2023-03-04T05:43:01;99965.00;;;1.29;100.00
65997;BME280;52765;52.258;21.052;2023-03-04T05:45:27;99958.66;;;1.32;100.00
65997;BME280;52765;52.258;21.052;2023-03-04T05:47:53;99947.50;;;1.27;100.00
65997;BME280;52765;52.258;21.052;2023-03-04T05:50:20;99949.75;;;1.20;100.00
65997;BME280;52765;52.258;21.052;2023-03-04T05:52:47;99951.41;;;1.21;100.00
65997;BME280;52765;52.258;21.052;2023-03-04T05:55:13;99950.78;;;1.18;100.00
65997;BME280;52765;52.258;21.052;2023-03-04T05:57:39;99944.31;;;1.22;100.00
65997;BME280;52765;52.258;21.052;2023-03-04T06:00:08;99938.16;;;1.34;100.00
65997;BME280;52765;52.258;21.052;2023-03-04T06:02:35;99933.91;;;1.19;100.00
65997;BME280;52765;52.258;21.052;2023-03-04T06:05:01;99929.56;;;1.18;100.00
65997;BME280;52765;52.258;21.052;2023-03-04T06:07:26;99915.03;;;1.10;100.00
65997;BME280;52765;52.258;21.052;2023-03-04T06:09:52;99920.66;;;1.19;100.00
65997;BME280;52765;52.258;21.052;2023-03-04T06:12:17;99926.81;;;1.19;100.00
65997;BME280;52765;52.258;21.052;2023-03-04T06:14:43;99925.09;;;1.18;100.00
65997;BME280;52765;52.258;21.052;2023-03-04T06:17:11;99915.88;;;1.11;100.00
65997;BME280;52765;52.258;21.052;2023-03-04T06:19:36;99913.63;;;1.05;100.00
65997;BME280;52765;52.258;21.052;2023-03-04T06:22:03;99915.97;;;1.09;100.00
65997;BME280;52765;52.258;21.052;2023-03-04T06:24:28;99912.91;;;1.16;100.00
65997;BME280;52765;52.258;21.052;2023-03-04T06:26:54;99913.63;;;1.18;100.00
65997;BME280;52765;52.258;21.052;2023-03-04T06:29:20;99913.22;;;1.11;100.00
65997;BME280;52765;52.258;21.052;2023-03-04T06:31:45;99903.88;;;1.18;100.00
65997;BME280;52765;52.258;21.052;2023-03-04T06:34:11;99920.22;;;1.12;100.00
65997;BME280;52765;52.258;21.052;2023-03-04T06:36:39;99924.25;;;1.18;100.00
65997;BME280;52765;52.258;21.052;2023-03-04T06:39:05;99909.41;;;1.15;100.00
65997;BME280;52765;52.258;21.052;2023-03-04T06:41:31;99913.00;;;1.14;100.00
65997;BME280;52765;52.258;21.052;2023-03-04T06:43:57;99912.28;;;1.12;100.00
65997;BME280;52765;52.258;21.052;2023-03-04T06:46:23;99922.47;;;1.05;100.00
65997;BME280;52765;52.258;21.052;2023-03-04T06:48:48;99923.63;;;1.14;100.00
65997;BME280;52765;52.258;21.052;2023-03-04T06:51:14;99914.72;;;1.15;100.00
65997;BME280;52765;52.258;21.052;2023-03-04T06:53:41;99911.53;;;1.10;100.00
65997;BME280;52765;52.258;21.052;2023-03-04T06:56:12;99909.31;;;1.17;100.00
65997;BME280;52765;52.258;21.052;2023-03-04T06:58:40;99919.16;;;1.15;100.00
65997;BME280;52765;52.258;21.052;2023-03-04T07:01:20;99900.69;;;1.13;100.00
65997;BME280;52765;52.258;21.052;2023-03-04T07:03:46;99917.56;;;1.25;100.00
65997;BME280;52765;52.258;21.052;2023-03-04T07:06:14;99913.13;;;1.25;100.00
65997;BME280;52765;52.258;21.052;2023-03-04T07:08:41;99912.78;;;1.30;100.00
65997;BME280;52765;52.258;21.052;2023-03-04T07:11:07;99926.16;;;1.28;100.00
65997;BME280;52765;52.258;21.052;2023-03-04T07:13:33;99932.31;;;1.29;100.00
65997;BME280;52765;52.258;21.052;2023-03-04T07:16:18;99923.31;;;1.32;100.00
65997;BME280;52765;52.258;21.052;2023-03-04T07:18:44;99916.81;;;1.36;100.00
65997;BME280;52765;52.258;21.052;2023-03-04T07:21:13;99918.84;;;1.32;100.00
65997;BME280;52765;52.258;21.052;2023-03-04T07:23:39;99925.19;;;1.29;100.00
65997;BME280;52765;52.258;21.052;2023-03-04T07:26:06;99919.16;;;1.27;100.00
65997;BME280;52765;52.258;21.052;2023-03-04T07:28:32;99907.25;;;1.33;100.00
65997;BME280;52765;52.258;21.052;2023-03-04T07:31:22;99910.88;;;1.32;100.00
65997;BME280;52765;52.258;21.052;2023-03-04T07:33:49;99928.06;;;1.39;100.00
65997;BME280;52765;52.258;21.052;2023-03-04T07:36:14;99900.47;;;1.42;100.00
65997;BME280;52765;52.258;21.052;2023-03-04T07:38:45;99900.88;;;1.48;100.00
65997;BME280;52765;52.258;21.052;2023-03-04T07:41:11;99913.38;;;1.46;100.00
65997;BME280;52765;52.258;21.052;2023-03-04T07:43:37;99917.63;;;1.49;100.00
65997;BME280;52765;52.258;21.052;2023-03-04T07:46:03;99882.63;;;1.31;100.00
65997;BME280;52765;52.258;21.052;2023-03-04T07:48:29;99894.75;;;1.35;100.00
65997;BME280;52765;52.258;21.052;2023-03-04T07:51:17;99886.25;;;1.30;100.00
65997;BME280;52765;52.258;21.052;2023-03-04T07:53:44;99891.63;;;1.41;100.00
65997;BME280;52765;52.258;21.052;2023-03-04T07:56:12;99889.06;;;1.40;100.00
65997;BME280;52765;52.258;21.052;2023-03-04T07:58:38;99881.53;;;1.46;100.00
65997;BME280;52765;52.258;21.052;2023-03-04T08:01:08;99882.59;;;1.57;100.00
65997;BME280;52765;52.258;21.052;2023-03-04T08:03:34;99888.41;;;1.62;100.00
65997;BME280;52765;52.258;21.052;2023-03-04T08:05:59;99876.19;;;1.59;100.00
65997;BME280;52765;52.258;21.052;2023-03-04T08:08:25;99884.47;;;1.55;100.00
65997;BME280;52765;52.258;21.052;2023-03-04T08:10:50;99903.31;;;1.52;100.00
65997;BME280;52765;52.258;21.052;2023-03-04T08:13:16;99865.69;;;1.58;100.00
65997;BME280;52765;52.258;21.052;2023-03-04T08:15:41;99875.75;;;1.65;100.00
65997;BME280;52765;52.258;21.052;2023-03-04T08:18:07;99861.97;;;1.60;100.00
65997;BME280;52765;52.258;21.052;2023-03-04T08:20:33;99878.63;;;1.62;100.00
65997;BME280;52765;52.258;21.052;2023-03-04T08:22:58;99875.69;;;1.54;100.00
65997;BME280;52765;52.258;21.052;2023-03-04T08:25:24;99876.63;;;1.53;100.00
65997;BME280;52765;52.258;21.052;2023-03-04T08:27:49;99864.22;;;1.54;100.00
65997;BME280;52765;52.258;21.052;2023-03-04T08:30:15;99867.28;;;1.60;100.00
65997;BME280;52765;52.258;21.052;2023-03-04T08:32:41;99868.13;;;1.61;100.00
65997;BME280;52765;52.258;21.052;2023-03-04T08:35:06;99855.34;;;1.66;100.00
65997;BME280;52765;52.258;21.052;2023-03-04T08:37:32;99867.47;;;1.70;100.00
65997;BME280;52765;52.258;21.052;2023-03-04T08:39:57;99855.31;;;1.79;100.00
65997;BME280;52765;52.258;21.052;2023-03-04T08:42:23;99873.09;;;1.90;98.62
65997;BME280;52765;52.258;21.052;2023-03-04T08:44:51;99864.19;;;1.91;99.81
65997;BME280;52765;52.258;21.052;2023-03-04T08:47:17;99861.22;;;1.82;99.98
65997;BME280;52765;52.258;21.052;2023-03-04T08:49:42;99860.03;;;1.62;100.00
65997;BME280;52765;52.258;21.052;2023-03-04T08:52:08;99864.16;;;1.66;100.00
65997;BME280;52765;52.258;21.052;2023-03-04T08:54:33;99860.94;;;1.74;100.00
65997;BME280;52765;52.258;21.052;2023-03-04T08:56:59;99859.13;;;1.75;100.00
65997;BME280;52765;52.258;21.052;2023-03-04T08:59:24;99859.66;;;1.80;100.00
65997;BME280;52765;52.258;21.052;2023-03-04T09:01:50;99876.00;;;1.87;99.79
65997;BME280;52765;52.258;21.052;2023-03-04T09:04:15;99849.28;;;1.88;100.00
65997;BME280;52765;52.258;21.052;2023-03-04T09:06:41;99853.09;;;1.97;99.03
65997;BME280;52765;52.258;21.052;2023-03-04T09:09:06;99839.88;;;1.84;99.86
65997;BME280;52765;52.258;21.052;2023-03-04T09:11:35;99843.19;;;1.99;99.96
65997;BME280;52765;52.258;21.052;2023-03-04T09:14:00;99845.03;;;2.10;99.06
65997;BME280;52765;52.258;21.052;2023-03-04T09:16:26;99827.09;;;2.13;98.66
65997;BME280;52765;52.258;21.052;2023-03-04T09:18:51;99835.78;;;2.15;98.10
65997;BME280;52765;52.258;21.052;2023-03-04T09:21:16;99837.44;;;2.05;98.52
65997;BME280;52765;52.258;21.052;2023-03-04T09:23:42;99832.91;;;2.18;98.12
65997;BME280;52765;52.258;21.052;2023-03-04T09:26:25;99831.31;;;2.16;98.44
65997;BME280;52765;52.258;21.052;2023-03-04T09:28:52;99825.66;;;2.20;98.43
65997;BME280;52765;52.258;21.052;2023-03-04T09:31:19;99828.41;;;2.19;98.49
65997;BME280;52765;52.258;21.052;2023-03-04T09:33:44;99821.06;;;2.22;97.81
65997;BME280;52765;52.258;21.052;2023-03-04T09:36:12;99838.75;;;2.35;98.12
65997;BME280;52765;52.258;21.052;2023-03-04T09:38:38;99813.00;;;2.35;97.24
65997;BME280;52765;52.258;21.052;2023-03-04T09:41:06;99832.09;;;2.40;97.92
65997;BME280;52765;52.258;21.052;2023-03-04T09:43:34;99819.28;;;2.34;97.65
65997;BME280;52765;52.258;21.052;2023-03-04T09:46:03;99816.09;;;2.18;98.55
65997;BME280;52765;52.258;21.052;2023-03-04T09:48:43;99833.50;;;2.22;98.81
65997;BME280;52765;52.258;21.052;2023-03-04T09:54:20;99812.38;;;2.20;99.00
65997;BME280;52765;52.258;21.052;2023-03-04T09:56:58;99820.81;;;2.26;100.00
65997;BME280;52765;52.258;21.052;2023-03-04T09:59:31;99830.63;;;2.36;99.19
65997;BME280;52765;52.258;21.052;2023-03-04T10:02:00;99817.09;;;2.28;99.34
65997;BME280;52765;52.258;21.052;2023-03-04T10:04:46;99823.38;;;2.27;99.47
65997;BME280;52765;52.258;21.052;2023-03-04T10:07:14;99828.19;;;2.22;100.00
65997;BME280;52765;52.258;21.052;2023-03-04T10:10:05;99820.69;;;2.16;100.00
65997;BME280;52765;52.258;21.052;2023-03-04T10:12:36;99804.56;;;2.06;100.00
65997;BME280;52765;52.258;21.052;2023-03-04T10:17:56;99804.72;;;2.16;100.00
65997;BME280;52765;52.258;21.052;2023-03-04T10:21:01;99806.22;;;2.20;100.00
65997;BME280;52765;52.258;21.052;2023-03-04T10:23:22;99792.28;;;2.16;100.00
65997;BME280;52765;52.258;21.052;2023-03-04T10:25:49;99790.25;;;2.31;100.00
65997;BME280;52765;52.258;21.052;2023-03-04T10:28:27;99785.09;;;2.41;99.64
65997;BME280;52765;52.258;21.052;2023-03-04T10:31:19;99797.53;;;2.40;100.00
65997;BME280;52765;52.258;21.052;2023-03-04T10:33:47;99779.66;;;2.43;99.02
65997;BME280;52765;52.258;21.052;2023-03-04T10:38:59;99770.13;;;2.40;100.00
65997;BME280;52765;52.258;21.052;2023-03-04T10:41:28;99770.63;;;2.45;100.00
65997;BME280;52765;52.258;21.052;2023-03-04T10:44:03;99762.63;;;2.56;100.00
65997;BME280;52765;52.258;21.052;2023-03-04T10:46:32;99764.06;;;2.49;100.00
65997;BME280;52765;52.258;21.052;2023-03-04T10:48:58;99774.22;;;2.44;100.00
65997;BME280;52765;52.258;21.052;2023-03-04T10:51:27;99764.53;;;2.43;100.00
65997;BME280;52765;52.258;21.052;2023-03-04T10:54:07;99763.94;;;2.39;100.00
65997;BME280;52765;52.258;21.052;2023-03-04T10:56:38;99766.38;;;2.54;100.00
65997;BME280;52765;52.258;21.052;2023-03-04T11:02:33;99769.75;;;2.33;100.00
65997;BME280;52765;52.258;21.052;2023-03-04T11:10:24;99755.13;;;2.39;100.00
65997;BME280;52765;52.258;21.052;2023-03-04T11:18:15;99743.41;;;2.53;100.00
65997;BME280;52765;52.258;21.052;2023-03-04T11:20:44;99749.22;;;2.58;100.00
65997;BME280;52765;52.258;21.052;2023-03-04T11:23:19;99747.06;;;2.52;100.00
65997;BME280;52765;52.258;21.052;2023-03-04T11:26:01;99755.47;;;2.34;100.00
65997;BME280;52765;52.258;21.052;2023-03-04T11:28:48;99739.28;;;2.37;100.00
65997;BME280;52765;52.258;21.052;2023-03-04T11:31:22;99735.81;;;2.37;100.00
65997;BME280;52765;52.258;21.052;2023-03-04T11:33:52;99737.38;;;2.28;100.00
65997;BME280;52765;52.258;21.052;2023-03-04T11:36:22;99730.47;;;2.37;100.00
65997;BME280;52765;52.258;21.052;2023-03-04T11:38:50;99730.25;;;2.40;100.00
65997;BME280;52765;52.258;21.052;2023-03-04T11:41:34;99727.22;;;2.56;100.00
65997;BME280;52765;52.258;21.052;2023-03-04T11:44:01;99726.50;;;2.54;100.00
65997;BME280;52765;52.258;21.052;2023-03-04T11:52:08;99724.81;;;2.64;100.00
65997;BME280;52765;52.258;21.052;2023-03-04T12:03:20;99716.94;;;2.96;100.00
65997;BME280;52765;52.258;21.052;2023-03-04T12:06:02;99734.91;;;3.04;100.00
65997;BME280;52765;52.258;21.052;2023-03-04T12:14:29;99721.53;;;2.83;100.00
65997;BME280;52765;52.258;21.052;2023-03-04T12:17:19;99722.84;;;2.89;100.00
65997;BME280;52765;52.258;21.052;2023-03-04T12:22:50;99733.84;;;2.95;100.00
65997;BME280;52765;52.258;21.052;2023-03-04T12:25:48;99755.38;;;2.92;100.00
65997;BME280;52765;52.258;21.052;2023-03-04T12:31:24;99736.50;;;2.84;100.00
65997;BME280;52765;52.258;21.052;2023-03-04T12:36:54;99723.00;;;3.31;100.00
65997;BME280;52765;52.258;21.052;2023-03-04T12:50:42;99702.72;;;4.35;99.02
65997;BME280;52765;52.258;21.052;2023-03-04T12:55:58;99716.72;;;4.58;98.11
65997;BME280;52765;52.258;21.052;2023-03-04T12:58:29;99714.50;;;4.63;96.09
65997;BME280;52765;52.258;21.052;2023-03-04T13:06:17;99703.44;;;4.78;93.91
65997;BME280;52765;52.258;21.052;2023-03-04T13:08:50;99706.09;;;4.68;94.55
65997;BME280;52765;52.258;21.052;2023-03-04T13:14:03;99704.53;;;4.66;95.72
65997;BME280;52765;52.258;21.052;2023-03-04T13:16:37;99694.50;;;4.89;92.34
65997;BME280;52765;52.258;21.052;2023-03-04T13:19:43;99689.22;;;4.68;94.62
65997;BME280;52765;52.258;21.052;2023-03-04T13:38:20;99758.09;;;3.68;98.90
65997;BME280;52765;52.258;21.052;2023-03-04T13:43:27;99775.66;;;2.26;100.00
65997;BME280;52765;52.258;21.052;2023-03-04T13:45:53;99776.50;;;1.55;100.00
65997;BME280;52765;52.258;21.052;2023-03-04T13:51:26;99735.09;;;1.28;100.00
65997;BME280;52765;52.258;21.052;2023-03-04T14:02:17;99698.72;;;1.42;100.00
65997;BME280;52765;52.258;21.052;2023-03-04T14:04:56;99687.63;;;1.37;100.00
65997;BME280;52765;52.258;21.052;2023-03-04T14:07:28;99707.41;;;1.44;100.00
65997;BME280;52765;52.258;21.052;2023-03-04T14:12:22;99696.50;;;2.07;95.06
65997;BME280;52765;52.258;21.052;2023-03-04T14:14:59;99702.91;;;2.38;93.29
65997;BME280;52765;52.258;21.052;2023-03-04T14:17:30;99713.28;;;2.86;90.36
65997;BME280;52765;52.258;21.052;2023-03-04T14:20:04;99706.22;;;3.08;85.64
65997;BME280;52765;52.258;21.052;2023-03-04T14:22:38;99691.63;;;3.34;84.87
65997;BME280;52765;52.258;21.052;2023-03-04T14:25:25;99700.00;;;3.62;79.47
65997;BME280;52765;52.258;21.052;2023-03-04T14:28:13;99706.28;;;4.15;80.08
65997;BME280;52765;52.258;21.052;2023-03-04T14:30:41;99691.63;;;4.09;72.50
65997;BME280;52765;52.258;21.052;2023-03-04T14:33:12;99686.16;;;4.32;72.70
65997;BME280;52765;52.258;21.052;2023-03-04T14:35:47;99702.03;;;4.33;73.74
65997;BME280;52765;52.258;21.052;2023-03-04T14:38:28;99711.38;;;4.28;74.46
65997;BME280;52765;52.258;21.052;2023-03-04T14:41:28;99707.66;;;4.40;73.61
65997;BME280;52765;52.258;21.052;2023-03-04T14:47:26;99718.50;;;4.48;71.50
65997;BME280;52765;52.258;21.052;2023-03-04T14:49:53;99719.34;;;4.89;69.13
65997;BME280;52765;52.258;21.052;2023-03-04T14:52:33;99718.91;;;4.84;67.13